Century City, California
Current Conditions -  °F | °C
As of 11:51 AM on Saturday 25 Oct 2014 (Local Time) from KSMO Reporting Station
Scattered Clouds Scattered Clouds  
Wind Chill: 74°   Ceiling: Unl
Heat Index: 74°   Visibility: 10mi
Dew Point: 53°   Wind: 7mph
Humidity: 48%   Direction: 230°SW
Pressure: 30.06"   Gusts: NA
Location:  34.0574°N, 118.414°W
Report Text: KSMO 251851Z 23006KT 10SM SCT095 23/12 A3006 RMK AO2 SLP177 T02330117 $
Loading
Personal Weather Stations






























Interactive Weather Map
Tropical Storm Tracking
New forecast layout! Learn more

10-Day Weather Forecast

Advertisements
Track Severe Weather on mobile